sensor_id;sensor_type;location;lat;lon;timestamp;P1;P2;P0
58740;PMS7003;44512;53.046;18.604;2022-10-26T00:03:47;20;15;10
58740;PMS7003;44512;53.046;18.604;2022-10-26T00:14:15;18;13;9
58740;PMS7003;44512;53.046;18.604;2022-10-26T00:24:44;18;12;9
58740;PMS7003;44512;53.046;18.604;2022-10-26T00:35:12;16;15;10
58740;PMS7003;44512;53.046;18.604;2022-10-26T00:45:40;17;15;10
58740;PMS7003;44512;53.046;18.604;2022-10-26T00:56:09;19;15;9
58740;PMS7003;44512;53.046;18.604;2022-10-26T01:06:37;16;14;9
58740;PMS7003;44512;53.046;18.604;2022-10-26T01:27:37;24;17;11
58740;PMS7003;44512;53.046;18.604;2022-10-26T01:48:31;22;20;14
58740;PMS7003;44512;53.046;18.604;2022-10-26T02:20:00;26;16;11
58740;PMS7003;44512;53.046;18.604;2022-10-26T02:30:24;19;16;10
58740;PMS7003;44512;53.046;18.604;2022-10-26T02:40:52;21;19;13
58740;PMS7003;44512;53.046;18.604;2022-10-26T02:52:08;19;16;10
58740;PMS7003;44512;53.046;18.604;2022-10-26T03:01:49;17;14;10
58740;PMS7003;44512;53.046;18.604;2022-10-26T03:12:18;22;15;10
58740;PMS7003;44512;53.046;18.604;2022-10-26T03:22:46;19;15;11
58740;PMS7003;44512;53.046;18.604;2022-10-26T03:33:14;16;12;9
58740;PMS7003;44512;53.046;18.604;2022-10-26T03:43:43;20;15;11
58740;PMS7003;44512;53.046;18.604;2022-10-26T03:54:11;22;16;10
58740;PMS7003;44512;53.046;18.604;2022-10-26T04:04:40;15;13;9
58740;PMS7003;44512;53.046;18.604;2022-10-26T04:15:08;20;16;10
58740;PMS7003;44512;53.046;18.604;2022-10-26T04:25:36;20;16;12
58740;PMS7003;44512;53.046;18.604;2022-10-26T04:36:05;17;15;10
58740;PMS7003;44512;53.046;18.604;2022-10-26T04:46:33;19;17;12
58740;PMS7003;44512;53.046;18.604;2022-10-26T04:57:01;22;17;13
58740;PMS7003;44512;53.046;18.604;2022-10-26T05:07:30;20;17;12
58740;PMS7003;44512;53.046;18.604;2022-10-26T05:18:00;19;14;9
58740;PMS7003;44512;53.046;18.604;2022-10-26T05:28:26;14;13;9
58740;PMS7003;44512;53.046;18.604;2022-10-26T05:38:58;17;11;8
58740;PMS7003;44512;53.046;18.604;2022-10-26T05:49:23;18;14;8
58740;PMS7003;44512;53.046;18.604;2022-10-26T05:59:52;13;11;9
58740;PMS7003;44512;53.046;18.604;2022-10-26T06:10:20;15;11;8
58740;PMS7003;44512;53.046;18.604;2022-10-26T06:31:17;15;14;10
58740;PMS7003;44512;53.046;18.604;2022-10-26T06:41:45;19;13;9
58740;PMS7003;44512;53.046;18.604;2022-10-26T07:02:42;15;12;8
58740;PMS7003;44512;53.046;18.604;2022-10-26T07:13:10;15;14;9
58740;PMS7003;44512;53.046;18.604;2022-10-26T07:23:39;16;13;9
58740;PMS7003;44512;53.046;18.604;2022-10-26T07:34:07;22;13;8
58740;PMS7003;44512;53.046;18.604;2022-10-26T07:44:35;21;18;13
58740;PMS7003;44512;53.046;18.604;2022-10-26T07:55:04;23;18;12
58740;PMS7003;44512;53.046;18.604;2022-10-26T08:05:32;27;20;15
58740;PMS7003;44512;53.046;18.604;2022-10-26T08:16:02;24;18;12
58740;PMS7003;44512;53.046;18.604;2022-10-26T08:26:29;14;13;10
58740;PMS7003;44512;53.046;18.604;2022-10-26T08:36:57;18;15;10
58740;PMS7003;44512;53.046;18.604;2022-10-26T08:47:27;15;12;9
58740;PMS7003;44512;53.046;18.604;2022-10-26T08:57:54;17;14;10
58740;PMS7003;44512;53.046;18.604;2022-10-26T09:08:44;21;16;11
58740;PMS7003;44512;53.046;18.604;2022-10-26T09:29:20;22;18;11
58740;PMS7003;44512;53.046;18.604;2022-10-26T09:39:53;20;16;11
58740;PMS7003;44512;53.046;18.604;2022-10-26T09:50:18;30;23;16
58740;PMS7003;44512;53.046;18.604;2022-10-26T10:00:44;36;21;15
58740;PMS7003;44512;53.046;18.604;2022-10-26T10:11:13;24;19;13
58740;PMS7003;44512;53.046;18.604;2022-10-26T10:21:46;22;18;12
58740;PMS7003;44512;53.046;18.604;2022-10-26T10:42:38;28;25;14
58740;PMS7003;44512;53.046;18.604;2022-10-26T11:03:41;28;22;14
58740;PMS7003;44512;53.046;18.604;2022-10-26T11:14:04;21;15;11
58740;PMS7003;44512;53.046;18.604;2022-10-26T11:35:04;28;20;14
58740;PMS7003;44512;53.046;18.604;2022-10-26T11:45:36;24;20;13
58740;PMS7003;44512;53.046;18.604;2022-10-26T11:55:57;31;26;14
58740;PMS7003;44512;53.046;18.604;2022-10-26T12:06:26;26;20;13
58740;PMS7003;44512;53.046;18.604;2022-10-26T12:27:33;35;26;17
58740;PMS7003;44512;53.046;18.604;2022-10-26T12:37:50;31;27;16
58740;PMS7003;44512;53.046;18.604;2022-10-26T12:48:20;25;21;14
58740;PMS7003;44512;53.046;18.604;2022-10-26T13:19:45;25;19;11
58740;PMS7003;44512;53.046;18.604;2022-10-26T13:40:41;22;18;12
58740;PMS7003;44512;53.046;18.604;2022-10-26T13:51:11;21;17;11
58740;PMS7003;44512;53.046;18.604;2022-10-26T14:01:38;23;17;13
58740;PMS7003;44512;53.046;18.604;2022-10-26T14:12:08;22;16;11
58740;PMS7003;44512;53.046;18.604;2022-10-26T14:22:34;19;18;12
58740;PMS7003;44512;53.046;18.604;2022-10-26T14:33:15;15;15;10
58740;PMS7003;44512;53.046;18.604;2022-10-26T14:43:31;20;17;12
58740;PMS7003;44512;53.046;18.604;2022-10-26T14:53:59;17;15;11
58740;PMS7003;44512;53.046;18.604;2022-10-26T15:04:29;19;15;11
58740;PMS7003;44512;53.046;18.604;2022-10-26T15:14:59;20;16;12
58740;PMS7003;44512;53.046;18.604;2022-10-26T15:25:26;21;19;13
58740;PMS7003;44512;53.046;18.604;2022-10-26T15:46:22;37;26;17
58740;PMS7003;44512;53.046;18.604;2022-10-26T15:56:50;24;21;15
58740;PMS7003;44512;53.046;18.604;2022-10-26T16:07:18;25;20;14
58740;PMS7003;44512;53.046;18.604;2022-10-26T16:17:47;21;19;14
58740;PMS7003;44512;53.046;18.604;2022-10-26T16:28:15;24;23;16
58740;PMS7003;44512;53.046;18.604;2022-10-26T16:38:43;26;22;15
58740;PMS7003;44512;53.046;18.604;2022-10-26T16:54:24;20;18;14
58740;PMS7003;44512;53.046;18.604;2022-10-26T17:04:52;23;19;13
58740;PMS7003;44512;53.046;18.604;2022-10-26T17:15:21;21;18;12
58740;PMS7003;44512;53.046;18.604;2022-10-26T17:25:49;22;18;14
58740;PMS7003;44512;53.046;18.604;2022-10-26T17:36:18;20;17;12
58740;PMS7003;44512;53.046;18.604;2022-10-26T17:46:45;29;20;13
58740;PMS7003;44512;53.046;18.604;2022-10-26T17:57:14;30;20;15
58740;PMS7003;44512;53.046;18.604;2022-10-26T18:07:42;32;26;17
58740;PMS7003;44512;53.046;18.604;2022-10-26T18:18:11;30;25;18
58740;PMS7003;44512;53.046;18.604;2022-10-26T18:28:39;31;27;19
58740;PMS7003;44512;53.046;18.604;2022-10-26T18:39:07;37;26;18
58740;PMS7003;44512;53.046;18.604;2022-10-26T18:49:36;41;32;22
58740;PMS7003;44512;53.046;18.604;2022-10-26T19:00:05;35;28;21
58740;PMS7003;44512;53.046;18.604;2022-10-26T19:10:33;48;37;25
58740;PMS7003;44512;53.046;18.604;2022-10-26T19:21:05;51;40;26
58740;PMS7003;44512;53.046;18.604;2022-10-26T19:31:30;52;42;26
58740;PMS7003;44512;53.046;18.604;2022-10-26T19:41:58;52;41;26
58740;PMS7003;44512;53.046;18.604;2022-10-26T19:52:26;55;43;28
58740;PMS7003;44512;53.046;18.604;2022-10-26T20:02:55;61;46;28
58740;PMS7003;44512;53.046;18.604;2022-10-26T20:13:23;58;45;30
58740;PMS7003;44512;53.046;18.604;2022-10-26T20:23:52;60;45;30
58740;PMS7003;44512;53.046;18.604;2022-10-26T20:34:20;60;46;29
58740;PMS7003;44512;53.046;18.604;2022-10-26T20:44:51;56;43;27
58740;PMS7003;44512;53.046;18.604;2022-10-26T20:55:27;52;40;26
58740;PMS7003;44512;53.046;18.604;2022-10-26T21:05:46;51;39;26
58740;PMS7003;44512;53.046;18.604;2022-10-26T21:16:14;46;37;24
58740;PMS7003;44512;53.046;18.604;2022-10-26T21:26:42;53;38;24
58740;PMS7003;44512;53.046;18.604;2022-10-26T21:37:11;47;38;25
58740;PMS7003;44512;53.046;18.604;2022-10-26T21:47:39;47;37;26
58740;PMS7003;44512;53.046;18.604;2022-10-26T21:58:08;46;35;23
58740;PMS7003;44512;53.046;18.604;2022-10-26T22:08:36;48;39;25
58740;PMS7003;44512;53.046;18.604;2022-10-26T22:19:05;53;41;27
58740;PMS7003;44512;53.046;18.604;2022-10-26T22:29:33;56;43;27
58740;PMS7003;44512;53.046;18.604;2022-10-26T22:40:02;51;39;25
58740;PMS7003;44512;53.046;18.604;2022-10-26T22:50:30;54;41;26
58740;PMS7003;44512;53.046;18.604;2022-10-26T23:11:27;55;43;28
58740;PMS7003;44512;53.046;18.604;2022-10-26T23:21:55;52;41;26
58740;PMS7003;44512;53.046;18.604;2022-10-26T23:32:24;52;41;26
58740;PMS7003;44512;53.046;18.604;2022-10-26T23:42:52;51;39;25
58740;PMS7003;44512;53.046;18.604;2022-10-26T23:53:21;51;39;25
